sensor_id;sensor_type;location;lat;lon;timestamp;temperature;humidity
2893;DHT22;1456;51.840;12.184;2022-11-03T00:02:16;4.80;99.90
2893;DHT22;1456;51.840;12.184;2022-11-03T00:04:48;4.60;99.90
2893;DHT22;1456;51.840;12.184;2022-11-03T00:07:26;4.60;99.90
2893;DHT22;1456;51.840;12.184;2022-11-03T00:09:55;4.60;99.90
2893;DHT22;1456;51.840;12.184;2022-11-03T00:12:21;4.70;99.90
2893;DHT22;1456;51.840;12.184;2022-11-03T00:14:51;4.60;99.90
2893;DHT22;1456;51.840;12.184;2022-11-03T00:17:23;4.50;99.90
2893;DHT22;1456;51.840;12.184;2022-11-03T00:19:51;4.50;99.90
2893;DHT22;1456;51.840;12.184;2022-11-03T00:22:25;4.60;99.90
2893;DHT22;1456;51.840;12.184;2022-11-03T00:24:53;4.70;99.90
2893;DHT22;1456;51.840;12.184;2022-11-03T00:27:20;4.70;99.90
2893;DHT22;1456;51.840;12.184;2022-11-03T00:29:51;4.50;99.90
2893;DHT22;1456;51.840;12.184;2022-11-03T00:32:19;4.70;99.90
2893;DHT22;1456;51.840;12.184;2022-11-03T00:34:48;4.60;99.90
2893;DHT22;1456;51.840;12.184;2022-11-03T00:37:15;4.70;99.90
2893;DHT22;1456;51.840;12.184;2022-11-03T00:39:45;4.70;99.90
2893;DHT22;1456;51.840;12.184;2022-11-03T00:42:16;4.60;99.90
2893;DHT22;1456;51.840;12.184;2022-11-03T00:44:46;4.60;99.90
2893;DHT22;1456;51.840;12.184;2022-11-03T00:47:11;4.40;99.90
2893;DHT22;1456;51.840;12.184;2022-11-03T00:49:37;4.60;99.90
2893;DHT22;1456;51.840;12.184;2022-11-03T00:52:06;4.60;99.90
2893;DHT22;1456;51.840;12.184;2022-11-03T00:54:37;4.50;99.90
2893;DHT22;1456;51.840;12.184;2022-11-03T00:57:10;4.60;99.90
2893;DHT22;1456;51.840;12.184;2022-11-03T00:59:43;4.50;99.90
2893;DHT22;1456;51.840;12.184;2022-11-03T01:02:10;4.50;99.90
2893;DHT22;1456;51.840;12.184;2022-11-03T01:04:38;4.60;99.90
2893;DHT22;1456;51.840;12.184;2022-11-03T01:07:36;4.50;99.90
2893;DHT22;1456;51.840;12.184;2022-11-03T01:10:05;4.50;99.90
2893;DHT22;1456;51.840;12.184;2022-11-03T01:12:32;4.50;99.90
2893;DHT22;1456;51.840;12.184;2022-11-03T01:15:01;4.60;99.90
2893;DHT22;1456;51.840;12.184;2022-11-03T01:17:34;4.70;99.90
2893;DHT22;1456;51.840;12.184;2022-11-03T01:20:01;4.50;99.90
2893;DHT22;1456;51.840;12.184;2022-11-03T01:22:30;4.50;99.90
2893;DHT22;1456;51.840;12.184;2022-11-03T01:24:55;4.70;99.90
2893;DHT22;1456;51.840;12.184;2022-11-03T01:27:23;4.60;99.90
2893;DHT22;1456;51.840;12.184;2022-11-03T01:29:53;4.60;99.90
2893;DHT22;1456;51.840;12.184;2022-11-03T01:32:25;4.60;99.90
2893;DHT22;1456;51.840;12.184;2022-11-03T01:35:06;4.60;99.90
2893;DHT22;1456;51.840;12.184;2022-11-03T01:37:32;4.60;99.90
2893;DHT22;1456;51.840;12.184;2022-11-03T01:39:57;4.60;99.90
2893;DHT22;1456;51.840;12.184;2022-11-03T01:42:23;4.60;99.90
2893;DHT22;1456;51.840;12.184;2022-11-03T01:44:49;4.40;99.90
2893;DHT22;1456;51.840;12.184;2022-11-03T01:49:56;4.60;99.90
2893;DHT22;1456;51.840;12.184;2022-11-03T01:52:29;4.50;99.90
2893;DHT22;1456;51.840;12.184;2022-11-03T01:55:01;4.40;99.90
2893;DHT22;1456;51.840;12.184;2022-11-03T01:57:35;4.40;99.90
2893;DHT22;1456;51.840;12.184;2022-11-03T02:00:02;4.50;99.90
2893;DHT22;1456;51.840;12.184;2022-11-03T02:02:29;4.40;99.90
2893;DHT22;1456;51.840;12.184;2022-11-03T02:04:57;4.50;99.90
2893;DHT22;1456;51.840;12.184;2022-11-03T02:09:55;4.40;99.90
2893;DHT22;1456;51.840;12.184;2022-11-03T02:12:21;4.40;99.90
2893;DHT22;1456;51.840;12.184;2022-11-03T02:14:59;4.40;99.90
2893;DHT22;1456;51.840;12.184;2022-11-03T02:17:28;4.50;99.90
2893;DHT22;1456;51.840;12.184;2022-11-03T02:20:14;4.50;99.90
2893;DHT22;1456;51.840;12.184;2022-11-03T02:28:03;4.60;99.90
2893;DHT22;1456;51.840;12.184;2022-11-03T02:30:48;4.60;99.90
2893;DHT22;1456;51.840;12.184;2022-11-03T02:35:50;4.60;99.90
2893;DHT22;1456;51.840;12.184;2022-11-03T02:38:18;4.70;99.90
2893;DHT22;1456;51.840;12.184;2022-11-03T02:40:51;4.90;99.90
2893;DHT22;1456;51.840;12.184;2022-11-03T02:43:17;4.80;99.90
2893;DHT22;1456;51.840;12.184;2022-11-03T02:45:46;4.70;99.90
2893;DHT22;1456;51.840;12.184;2022-11-03T02:48:14;4.90;99.90
2893;DHT22;1456;51.840;12.184;2022-11-03T02:50:40;4.90;99.90
2893;DHT22;1456;51.840;12.184;2022-11-03T02:53:08;5.00;99.90
2893;DHT22;1456;51.840;12.184;2022-11-03T03:00:47;4.90;99.90
2893;DHT22;1456;51.840;12.184;2022-11-03T03:03:20;4.80;99.90
2893;DHT22;1456;51.840;12.184;2022-11-03T03:05:51;4.80;99.90
2893;DHT22;1456;51.840;12.184;2022-11-03T03:08:20;4.80;99.90
2893;DHT22;1456;51.840;12.184;2022-11-03T03:10:47;4.90;99.90
2893;DHT22;1456;51.840;12.184;2022-11-03T03:13:16;4.90;99.90
2893;DHT22;1456;51.840;12.184;2022-11-03T03:18:50;4.70;99.90
2893;DHT22;1456;51.840;12.184;2022-11-03T03:21:22;4.70;99.90
2893;DHT22;1456;51.840;12.184;2022-11-03T03:24:18;4.70;99.90
2893;DHT22;1456;51.840;12.184;2022-11-03T03:26:47;4.70;99.90
2893;DHT22;1456;51.840;12.184;2022-11-03T03:29:38;4.70;99.90
2893;DHT22;1456;51.840;12.184;2022-11-03T03:32:07;4.70;99.90
2893;DHT22;1456;51.840;12.184;2022-11-03T03:34:36;4.70;99.90
2893;DHT22;1456;51.840;12.184;2022-11-03T03:37:04;4.60;99.90
2893;DHT22;1456;51.840;12.184;2022-11-03T03:39:33;4.60;99.90
2893;DHT22;1456;51.840;12.184;2022-11-03T03:42:02;4.70;99.90
2893;DHT22;1456;51.840;12.184;2022-11-03T03:44:30;4.70;99.90
2893;DHT22;1456;51.840;12.184;2022-11-03T03:47:03;4.80;99.90
2893;DHT22;1456;51.840;12.184;2022-11-03T03:49:30;4.70;99.90
2893;DHT22;1456;51.840;12.184;2022-11-03T03:51:56;4.70;99.90
2893;DHT22;1456;51.840;12.184;2022-11-03T03:54:22;4.60;99.90
2893;DHT22;1456;51.840;12.184;2022-11-03T03:57:00;4.80;99.90
2893;DHT22;1456;51.840;12.184;2022-11-03T03:59:26;4.70;99.90
2893;DHT22;1456;51.840;12.184;2022-11-03T04:01:53;4.50;99.90
2893;DHT22;1456;51.840;12.184;2022-11-03T04:04:19;4.50;99.90
2893;DHT22;1456;51.840;12.184;2022-11-03T04:06:44;4.60;99.90
2893;DHT22;1456;51.840;12.184;2022-11-03T04:09:11;4.50;99.90
2893;DHT22;1456;51.840;12.184;2022-11-03T04:11:37;4.50;99.90
2893;DHT22;1456;51.840;12.184;2022-11-03T04:14:22;4.50;99.90
2893;DHT22;1456;51.840;12.184;2022-11-03T04:17:18;4.50;99.90
2893;DHT22;1456;51.840;12.184;2022-11-03T04:20:05;4.50;99.90
2893;DHT22;1456;51.840;12.184;2022-11-03T04:22:52;4.50;99.90
2893;DHT22;1456;51.840;12.184;2022-11-03T04:25:18;4.50;99.90
2893;DHT22;1456;51.840;12.184;2022-11-03T04:27:44;4.70;99.90
2893;DHT22;1456;51.840;12.184;2022-11-03T04:30:14;4.60;99.90
2893;DHT22;1456;51.840;12.184;2022-11-03T04:32:41;4.40;99.90
2893;DHT22;1456;51.840;12.184;2022-11-03T04:35:19;4.30;99.90
2893;DHT22;1456;51.840;12.184;2022-11-03T04:38:02;4.30;99.90
2893;DHT22;1456;51.840;12.184;2022-11-03T04:40:30;4.20;99.90
2893;DHT22;1456;51.840;12.184;2022-11-03T04:42:56;4.10;99.90
2893;DHT22;1456;51.840;12.184;2022-11-03T04:45:31;4.10;99.90
2893;DHT22;1456;51.840;12.184;2022-11-03T04:48:00;4.00;99.90
2893;DHT22;1456;51.840;12.184;2022-11-03T04:50:27;4.00;99.90
2893;DHT22;1456;51.840;12.184;2022-11-03T04:52:59;4.00;99.90
2893;DHT22;1456;51.840;12.184;2022-11-03T04:55:25;4.00;99.90
2893;DHT22;1456;51.840;12.184;2022-11-03T04:57:56;3.90;99.90
2893;DHT22;1456;51.840;12.184;2022-11-03T05:00:22;3.90;99.90
2893;DHT22;1456;51.840;12.184;2022-11-03T05:02:50;3.90;99.90
2893;DHT22;1456;51.840;12.184;2022-11-03T05:05:19;3.90;99.90
2893;DHT22;1456;51.840;12.184;2022-11-03T05:07:47;3.90;99.90
2893;DHT22;1456;51.840;12.184;2022-11-03T05:10:19;3.90;99.90
2893;DHT22;1456;51.840;12.184;2022-11-03T05:12:46;3.80;99.90
2893;DHT22;1456;51.840;12.184;2022-11-03T05:17:58;3.70;99.90
2893;DHT22;1456;51.840;12.184;2022-11-03T05:20:51;3.80;99.90
2893;DHT22;1456;51.840;12.184;2022-11-03T05:23:18;3.80;99.90
2893;DHT22;1456;51.840;12.184;2022-11-03T05:25:51;3.90;99.90
2893;DHT22;1456;51.840;12.184;2022-11-03T05:28:26;3.80;99.90
2893;DHT22;1456;51.840;12.184;2022-11-03T05:30:54;3.80;99.90
2893;DHT22;1456;51.840;12.184;2022-11-03T05:33:32;3.70;99.90
2893;DHT22;1456;51.840;12.184;2022-11-03T05:36:12;3.90;99.90
2893;DHT22;1456;51.840;12.184;2022-11-03T05:38:38;3.70;99.90
2893;DHT22;1456;51.840;12.184;2022-11-03T05:41:18;3.70;99.90
2893;DHT22;1456;51.840;12.184;2022-11-03T05:46:26;3.70;99.90
2893;DHT22;1456;51.840;12.184;2022-11-03T05:48:53;3.70;99.90
2893;DHT22;1456;51.840;12.184;2022-11-03T05:51:24;3.80;99.90
2893;DHT22;1456;51.840;12.184;2022-11-03T05:53:58;3.80;99.90
2893;DHT22;1456;51.840;12.184;2022-11-03T05:56:24;3.60;99.90
2893;DHT22;1456;51.840;12.184;2022-11-03T05:58:55;3.60;99.90
2893;DHT22;1456;51.840;12.184;2022-11-03T06:01:33;3.70;99.90
2893;DHT22;1456;51.840;12.184;2022-11-03T06:04:19;3.70;99.90
2893;DHT22;1456;51.840;12.184;2022-11-03T06:07:12;3.80;99.90
2893;DHT22;1456;51.840;12.184;2022-11-03T06:09:40;3.90;99.90
2893;DHT22;1456;51.840;12.184;2022-11-03T06:12:10;3.90;99.90
2893;DHT22;1456;51.840;12.184;2022-11-03T06:14:38;4.00;99.90
2893;DHT22;1456;51.840;12.184;2022-11-03T06:17:06;4.10;99.90
2893;DHT22;1456;51.840;12.184;2022-11-03T06:19:46;4.10;99.90
2893;DHT22;1456;51.840;12.184;2022-11-03T06:24:44;4.00;99.90
2893;DHT22;1456;51.840;12.184;2022-11-03T06:27:15;4.00;99.90
2893;DHT22;1456;51.840;12.184;2022-11-03T06:29:49;4.10;99.90
2893;DHT22;1456;51.840;12.184;2022-11-03T06:32:17;4.20;99.90
2893;DHT22;1456;51.840;12.184;2022-11-03T06:34:46;4.20;99.90
2893;DHT22;1456;51.840;12.184;2022-11-03T06:39:50;4.30;99.90
2893;DHT22;1456;51.840;12.184;2022-11-03T06:42:20;4.50;99.90
2893;DHT22;1456;51.840;12.184;2022-11-03T06:44:48;4.50;99.90
2893;DHT22;1456;51.840;12.184;2022-11-03T06:49:43;4.60;99.90
2893;DHT22;1456;51.840;12.184;2022-11-03T06:52:28;4.80;99.90
2893;DHT22;1456;51.840;12.184;2022-11-03T06:54:58;4.70;99.90
2893;DHT22;1456;51.840;12.184;2022-11-03T06:57:24;4.80;99.90
2893;DHT22;1456;51.840;12.184;2022-11-03T06:59:51;5.00;99.90
2893;DHT22;1456;51.840;12.184;2022-11-03T07:02:54;5.00;99.90
2893;DHT22;1456;51.840;12.184;2022-11-03T07:05:26;5.10;99.90
2893;DHT22;1456;51.840;12.184;2022-11-03T07:07:54;5.20;99.90
2893;DHT22;1456;51.840;12.184;2022-11-03T07:10:25;5.20;99.90
2893;DHT22;1456;51.840;12.184;2022-11-03T07:12:51;5.30;99.90
2893;DHT22;1456;51.840;12.184;2022-11-03T07:15:32;5.50;99.90
2893;DHT22;1456;51.840;12.184;2022-11-03T07:18:00;5.60;99.90
2893;DHT22;1456;51.840;12.184;2022-11-03T07:20:27;5.60;99.90
2893;DHT22;1456;51.840;12.184;2022-11-03T07:22:53;5.70;99.90
2893;DHT22;1456;51.840;12.184;2022-11-03T07:25:21;5.80;99.90
2893;DHT22;1456;51.840;12.184;2022-11-03T07:27:51;6.00;99.90
2893;DHT22;1456;51.840;12.184;2022-11-03T07:30:29;6.10;99.90
2893;DHT22;1456;51.840;12.184;2022-11-03T07:33:01;6.30;99.90
2893;DHT22;1456;51.840;12.184;2022-11-03T07:35:35;6.40;99.90
2893;DHT22;1456;51.840;12.184;2022-11-03T07:38:13;6.60;99.90
2893;DHT22;1456;51.840;12.184;2022-11-03T07:40:40;6.70;99.90
2893;DHT22;1456;51.840;12.184;2022-11-03T07:43:33;6.60;99.90
2893;DHT22;1456;51.840;12.184;2022-11-03T07:46:01;7.10;99.90
2893;DHT22;1456;51.840;12.184;2022-11-03T07:51:20;7.50;99.90
2893;DHT22;1456;51.840;12.184;2022-11-03T07:53:49;7.70;99.90
2893;DHT22;1456;51.840;12.184;2022-11-03T07:58:48;7.90;99.90
2893;DHT22;1456;51.840;12.184;2022-11-03T08:01:33;8.00;99.90
2893;DHT22;1456;51.840;12.184;2022-11-03T08:04:11;8.00;99.90
2893;DHT22;1456;51.840;12.184;2022-11-03T08:06:38;8.10;99.90
2893;DHT22;1456;51.840;12.184;2022-11-03T08:09:04;8.30;99.90
2893;DHT22;1456;51.840;12.184;2022-11-03T08:11:30;8.40;99.90
2893;DHT22;1456;51.840;12.184;2022-11-03T08:13:56;8.50;99.90
2893;DHT22;1456;51.840;12.184;2022-11-03T08:16:22;8.70;99.90
2893;DHT22;1456;51.840;12.184;2022-11-03T08:18:47;8.90;99.90
2893;DHT22;1456;51.840;12.184;2022-11-03T08:21:13;9.10;99.90
2893;DHT22;1456;51.840;12.184;2022-11-03T08:23:40;9.20;99.90
2893;DHT22;1456;51.840;12.184;2022-11-03T08:26:05;9.40;99.90
2893;DHT22;1456;51.840;12.184;2022-11-03T08:28:32;9.40;99.90
2893;DHT22;1456;51.840;12.184;2022-11-03T08:30:58;9.40;99.90
2893;DHT22;1456;51.840;12.184;2022-11-03T08:33:33;9.60;99.90
2893;DHT22;1456;51.840;12.184;2022-11-03T08:36:00;9.80;99.90
2893;DHT22;1456;51.840;12.184;2022-11-03T08:38:26;9.90;99.90
2893;DHT22;1456;51.840;12.184;2022-11-03T08:40:55;10.00;99.90
2893;DHT22;1456;51.840;12.184;2022-11-03T08:43:22;10.10;99.90
2893;DHT22;1456;51.840;12.184;2022-11-03T08:45:49;10.10;99.90
2893;DHT22;1456;51.840;12.184;2022-11-03T08:48:22;10.20;99.90
2893;DHT22;1456;51.840;12.184;2022-11-03T08:50:48;10.40;99.90
2893;DHT22;1456;51.840;12.184;2022-11-03T08:53:20;10.50;99.90
2893;DHT22;1456;51.840;12.184;2022-11-03T08:55:46;10.50;99.90
2893;DHT22;1456;51.840;12.184;2022-11-03T08:58:11;10.60;99.90
2893;DHT22;1456;51.840;12.184;2022-11-03T09:00:37;10.70;99.90
2893;DHT22;1456;51.840;12.184;2022-11-03T09:03:03;10.80;99.90
2893;DHT22;1456;51.840;12.184;2022-11-03T09:05:29;11.00;99.90
2893;DHT22;1456;51.840;12.184;2022-11-03T09:07:54;11.30;99.90
2893;DHT22;1456;51.840;12.184;2022-11-03T09:10:20;11.30;99.90
2893;DHT22;1456;51.840;12.184;2022-11-03T09:12:46;11.40;99.90
2893;DHT22;1456;51.840;12.184;2022-11-03T09:15:12;11.20;99.90
2893;DHT22;1456;51.840;12.184;2022-11-03T09:17:37;11.40;99.90
2893;DHT22;1456;51.840;12.184;2022-11-03T09:20:04;11.40;99.90
2893;DHT22;1456;51.840;12.184;2022-11-03T09:22:30;11.50;99.90
2893;DHT22;1456;51.840;12.184;2022-11-03T09:24:56;11.70;99.90
2893;DHT22;1456;51.840;12.184;2022-11-03T09:27:22;11.90;99.90
2893;DHT22;1456;51.840;12.184;2022-11-03T09:29:48;11.80;99.90
2893;DHT22;1456;51.840;12.184;2022-11-03T09:32:14;11.90;99.90
2893;DHT22;1456;51.840;12.184;2022-11-03T09:34:40;12.00;99.90
2893;DHT22;1456;51.840;12.184;2022-11-03T09:37:06;12.10;99.90
2893;DHT22;1456;51.840;12.184;2022-11-03T09:39:31;12.20;99.90
2893;DHT22;1456;51.840;12.184;2022-11-03T09:41:57;12.20;99.90
2893;DHT22;1456;51.840;12.184;2022-11-03T09:44:25;12.50;99.90
2893;DHT22;1456;51.840;12.184;2022-11-03T09:46:51;12.80;99.90
2893;DHT22;1456;51.840;12.184;2022-11-03T09:49:19;12.80;99.90
2893;DHT22;1456;51.840;12.184;2022-11-03T09:51:47;12.70;99.90
2893;DHT22;1456;51.840;12.184;2022-11-03T09:54:15;12.80;99.90
2893;DHT22;1456;51.840;12.184;2022-11-03T09:56:43;13.00;99.90
2893;DHT22;1456;51.840;12.184;2022-11-03T09:59:16;13.10;99.90
2893;DHT22;1456;51.840;12.184;2022-11-03T10:01:44;13.30;99.90
2893;DHT22;1456;51.840;12.184;2022-11-03T10:04:11;13.60;99.90
2893;DHT22;1456;51.840;12.184;2022-11-03T10:06:38;13.60;99.90
2893;DHT22;1456;51.840;12.184;2022-11-03T10:09:04;13.60;99.90
2893;DHT22;1456;51.840;12.184;2022-11-03T10:11:33;13.80;99.90
2893;DHT22;1456;51.840;12.184;2022-11-03T10:13:59;13.60;99.90
2893;DHT22;1456;51.840;12.184;2022-11-03T10:16:25;13.50;99.90
2893;DHT22;1456;51.840;12.184;2022-11-03T10:18:51;13.70;99.90
2893;DHT22;1456;51.840;12.184;2022-11-03T10:21:19;13.80;99.90
2893;DHT22;1456;51.840;12.184;2022-11-03T10:23:47;13.80;99.90
2893;DHT22;1456;51.840;12.184;2022-11-03T10:26:16;13.80;99.90
2893;DHT22;1456;51.840;12.184;2022-11-03T10:29:05;13.80;99.90
2893;DHT22;1456;51.840;12.184;2022-11-03T10:31:40;13.80;99.90
2893;DHT22;1456;51.840;12.184;2022-11-03T10:34:34;13.80;99.90
2893;DHT22;1456;51.840;12.184;2022-11-03T10:37:16;13.90;99.90
2893;DHT22;1456;51.840;12.184;2022-11-03T10:39:42;13.90;99.90
2893;DHT22;1456;51.840;12.184;2022-11-03T10:42:23;14.00;99.90
2893;DHT22;1456;51.840;12.184;2022-11-03T10:45:07;14.20;99.90
2893;DHT22;1456;51.840;12.184;2022-11-03T10:47:34;14.10;99.90
2893;DHT22;1456;51.840;12.184;2022-11-03T10:52:43;13.80;99.90
2893;DHT22;1456;51.840;12.184;2022-11-03T10:55:08;14.20;99.90
2893;DHT22;1456;51.840;12.184;2022-11-03T10:57:35;14.30;99.90
2893;DHT22;1456;51.840;12.184;2022-11-03T11:00:00;14.50;99.90
2893;DHT22;1456;51.840;12.184;2022-11-03T11:02:30;14.50;99.50
2893;DHT22;1456;51.840;12.184;2022-11-03T11:05:02;14.60;99.90
2893;DHT22;1456;51.840;12.184;2022-11-03T11:07:38;14.80;99.90
2893;DHT22;1456;51.840;12.184;2022-11-03T11:10:15;14.70;99.70
2893;DHT22;1456;51.840;12.184;2022-11-03T11:15:40;15.00;99.90
2893;DHT22;1456;51.840;12.184;2022-11-03T11:18:06;14.90;99.50
2893;DHT22;1456;51.840;12.184;2022-11-03T11:20:35;15.10;99.90
2893;DHT22;1456;51.840;12.184;2022-11-03T11:28:36;15.20;99.40
2893;DHT22;1456;51.840;12.184;2022-11-03T11:36:39;15.70;99.90
2893;DHT22;1456;51.840;12.184;2022-11-03T11:42:15;16.80;98.50
2893;DHT22;1456;51.840;12.184;2022-11-03T11:52:41;18.20;96.90
2893;DHT22;1456;51.840;12.184;2022-11-03T11:57:53;19.20;95.10
2893;DHT22;1456;51.840;12.184;2022-11-03T12:00:24;19.90;93.90
2893;DHT22;1456;51.840;12.184;2022-11-03T12:03:01;20.50;93.10
2893;DHT22;1456;51.840;12.184;2022-11-03T12:05:33;21.30;91.60
2893;DHT22;1456;51.840;12.184;2022-11-03T12:07:59;21.80;90.40
2893;DHT22;1456;51.840;12.184;2022-11-03T12:10:35;22.20;90.10
2893;DHT22;1456;51.840;12.184;2022-11-03T12:13:01;22.70;87.30
2893;DHT22;1456;51.840;12.184;2022-11-03T12:15:55;21.70;82.00
2893;DHT22;1456;51.840;12.184;2022-11-03T12:18:40;22.20;86.40
2893;DHT22;1456;51.840;12.184;2022-11-03T12:21:11;22.70;86.40
2893;DHT22;1456;51.840;12.184;2022-11-03T12:28:54;20.20;82.90
2893;DHT22;1456;51.840;12.184;2022-11-03T12:31:20;18.50;83.40
2893;DHT22;1456;51.840;12.184;2022-11-03T12:33:45;17.90;86.60
2893;DHT22;1456;51.840;12.184;2022-11-03T12:36:11;17.60;90.10
2893;DHT22;1456;51.840;12.184;2022-11-03T12:38:36;17.60;90.90
2893;DHT22;1456;51.840;12.184;2022-11-03T12:41:02;17.90;91.70
2893;DHT22;1456;51.840;12.184;2022-11-03T12:43:47;18.40;91.80
2893;DHT22;1456;51.840;12.184;2022-11-03T12:46:23;18.90;89.50
2893;DHT22;1456;51.840;12.184;2022-11-03T12:48:50;19.40;89.40
2893;DHT22;1456;51.840;12.184;2022-11-03T12:51:18;19.40;88.20
2893;DHT22;1456;51.840;12.184;2022-11-03T12:53:44;19.70;87.10
2893;DHT22;1456;51.840;12.184;2022-11-03T12:56:13;20.10;87.80
2893;DHT22;1456;51.840;12.184;2022-11-03T12:58:40;20.30;85.90
2893;DHT22;1456;51.840;12.184;2022-11-03T13:01:08;20.60;85.40
2893;DHT22;1456;51.840;12.184;2022-11-03T13:03:34;21.20;84.50
2893;DHT22;1456;51.840;12.184;2022-11-03T13:06:03;21.20;81.80
2893;DHT22;1456;51.840;12.184;2022-11-03T13:08:30;21.50;82.70
2893;DHT22;1456;51.840;12.184;2022-11-03T13:11:00;21.00;80.50
2893;DHT22;1456;51.840;12.184;2022-11-03T13:13:26;20.20;83.90
2893;DHT22;1456;51.840;12.184;2022-11-03T13:15:52;19.50;83.30
2893;DHT22;1456;51.840;12.184;2022-11-03T13:18:18;19.00;86.30
2893;DHT22;1456;51.840;12.184;2022-11-03T13:20:44;19.20;88.20
2893;DHT22;1456;51.840;12.184;2022-11-03T13:23:11;19.50;87.20
2893;DHT22;1456;51.840;12.184;2022-11-03T13:25:36;19.90;83.40
2893;DHT22;1456;51.840;12.184;2022-11-03T13:28:02;19.80;85.50
2893;DHT22;1456;51.840;12.184;2022-11-03T13:30:29;19.60;84.30
2893;DHT22;1456;51.840;12.184;2022-11-03T13:32:55;19.30;86.00
2893;DHT22;1456;51.840;12.184;2022-11-03T13:35:21;19.20;87.40
2893;DHT22;1456;51.840;12.184;2022-11-03T13:37:46;19.00;86.30
2893;DHT22;1456;51.840;12.184;2022-11-03T13:40:13;18.70;87.10
2893;DHT22;1456;51.840;12.184;2022-11-03T13:42:39;18.40;87.80
2893;DHT22;1456;51.840;12.184;2022-11-03T13:45:05;17.90;86.20
2893;DHT22;1456;51.840;12.184;2022-11-03T13:47:35;17.70;88.90
2893;DHT22;1456;51.840;12.184;2022-11-03T13:50:02;17.40;88.40
2893;DHT22;1456;51.840;12.184;2022-11-03T13:52:29;17.20;90.00
2893;DHT22;1456;51.840;12.184;2022-11-03T13:54:54;17.00;90.70
2893;DHT22;1456;51.840;12.184;2022-11-03T13:57:20;16.90;91.00
2893;DHT22;1456;51.840;12.184;2022-11-03T13:59:46;16.70;91.60
2893;DHT22;1456;51.840;12.184;2022-11-03T14:02:13;16.40;91.90
2893;DHT22;1456;51.840;12.184;2022-11-03T14:04:39;16.00;91.90
2893;DHT22;1456;51.840;12.184;2022-11-03T14:07:06;15.70;93.10
2893;DHT22;1456;51.840;12.184;2022-11-03T14:09:32;15.40;93.70
2893;DHT22;1456;51.840;12.184;2022-11-03T14:11:57;15.20;94.50
2893;DHT22;1456;51.840;12.184;2022-11-03T14:14:41;15.00;95.00
2893;DHT22;1456;51.840;12.184;2022-11-03T14:17:07;14.90;95.90
2893;DHT22;1456;51.840;12.184;2022-11-03T14:19:33;14.80;96.00
2893;DHT22;1456;51.840;12.184;2022-11-03T14:21:59;14.80;96.20
2893;DHT22;1456;51.840;12.184;2022-11-03T14:24:25;14.80;96.80
2893;DHT22;1456;51.840;12.184;2022-11-03T14:26:51;14.70;97.00
2893;DHT22;1456;51.840;12.184;2022-11-03T14:29:18;14.80;97.20
2893;DHT22;1456;51.840;12.184;2022-11-03T14:31:56;14.80;97.60
2893;DHT22;1456;51.840;12.184;2022-11-03T14:34:23;14.90;98.00
2893;DHT22;1456;51.840;12.184;2022-11-03T14:36:48;15.10;97.60
2893;DHT22;1456;51.840;12.184;2022-11-03T14:39:15;15.00;97.30
2893;DHT22;1456;51.840;12.184;2022-11-03T14:41:41;15.00;98.00
2893;DHT22;1456;51.840;12.184;2022-11-03T14:44:29;15.00;98.40
2893;DHT22;1456;51.840;12.184;2022-11-03T14:46:55;15.00;98.40
2893;DHT22;1456;51.840;12.184;2022-11-03T14:49:21;15.00;98.60
2893;DHT22;1456;51.840;12.184;2022-11-03T14:51:47;15.00;98.70
2893;DHT22;1456;51.840;12.184;2022-11-03T14:54:12;15.00;98.30
2893;DHT22;1456;51.840;12.184;2022-11-03T14:56:39;14.70;98.90
2893;DHT22;1456;51.840;12.184;2022-11-03T14:59:04;14.40;99.40
2893;DHT22;1456;51.840;12.184;2022-11-03T15:01:31;14.20;99.90
2893;DHT22;1456;51.840;12.184;2022-11-03T15:03:57;14.00;99.90
2893;DHT22;1456;51.840;12.184;2022-11-03T15:06:23;13.70;99.90
2893;DHT22;1456;51.840;12.184;2022-11-03T15:08:49;13.50;99.90
2893;DHT22;1456;51.840;12.184;2022-11-03T15:11:15;13.30;99.90
2893;DHT22;1456;51.840;12.184;2022-11-03T15:13:41;13.20;99.90
2893;DHT22;1456;51.840;12.184;2022-11-03T15:16:07;13.00;99.90
2893;DHT22;1456;51.840;12.184;2022-11-03T15:18:33;12.90;99.90
2893;DHT22;1456;51.840;12.184;2022-11-03T15:20:58;12.80;99.90
2893;DHT22;1456;51.840;12.184;2022-11-03T15:23:25;12.60;99.90
2893;DHT22;1456;51.840;12.184;2022-11-03T15:25:50;12.50;99.90
2893;DHT22;1456;51.840;12.184;2022-11-03T15:28:16;12.40;99.90
2893;DHT22;1456;51.840;12.184;2022-11-03T15:30:41;12.20;99.90
2893;DHT22;1456;51.840;12.184;2022-11-03T15:33:07;12.20;99.90
2893;DHT22;1456;51.840;12.184;2022-11-03T15:35:33;12.10;99.90
2893;DHT22;1456;51.840;12.184;2022-11-03T15:37:59;12.00;99.90
2893;DHT22;1456;51.840;12.184;2022-11-03T15:40:25;11.90;99.90
2893;DHT22;1456;51.840;12.184;2022-11-03T15:42:51;11.90;99.90
2893;DHT22;1456;51.840;12.184;2022-11-03T15:45:18;11.80;99.90
2893;DHT22;1456;51.840;12.184;2022-11-03T15:47:43;11.70;99.90
2893;DHT22;1456;51.840;12.184;2022-11-03T15:50:11;11.70;99.90
2893;DHT22;1456;51.840;12.184;2022-11-03T15:52:37;11.60;99.90
2893;DHT22;1456;51.840;12.184;2022-11-03T15:55:04;11.60;99.90
2893;DHT22;1456;51.840;12.184;2022-11-03T15:57:30;11.60;99.90
2893;DHT22;1456;51.840;12.184;2022-11-03T15:59:56;11.70;99.90
2893;DHT22;1456;51.840;12.184;2022-11-03T16:02:23;11.60;99.90
2893;DHT22;1456;51.840;12.184;2022-11-03T16:04:49;11.60;99.90
2893;DHT22;1456;51.840;12.184;2022-11-03T16:07:15;11.60;99.90
2893;DHT22;1456;51.840;12.184;2022-11-03T16:09:40;11.50;99.90
2893;DHT22;1456;51.840;12.184;2022-11-03T16:12:06;11.40;99.90
2893;DHT22;1456;51.840;12.184;2022-11-03T16:14:33;11.40;99.90
2893;DHT22;1456;51.840;12.184;2022-11-03T16:16:59;11.20;99.90
2893;DHT22;1456;51.840;12.184;2022-11-03T16:19:25;11.20;99.90
2893;DHT22;1456;51.840;12.184;2022-11-03T16:21:50;11.10;99.90
2893;DHT22;1456;51.840;12.184;2022-11-03T16:24:16;11.10;99.90
2893;DHT22;1456;51.840;12.184;2022-11-03T16:26:43;11.10;99.90
2893;DHT22;1456;51.840;12.184;2022-11-03T16:29:08;11.10;99.90
2893;DHT22;1456;51.840;12.184;2022-11-03T16:31:34;11.00;99.90
2893;DHT22;1456;51.840;12.184;2022-11-03T16:34:00;11.10;99.90
2893;DHT22;1456;51.840;12.184;2022-11-03T16:36:25;11.00;99.90
2893;DHT22;1456;51.840;12.184;2022-11-03T16:38:51;11.00;99.90
2893;DHT22;1456;51.840;12.184;2022-11-03T16:41:17;11.00;99.90
2893;DHT22;1456;51.840;12.184;2022-11-03T16:43:43;11.00;99.90
2893;DHT22;1456;51.840;12.184;2022-11-03T16:46:08;11.10;99.90
2893;DHT22;1456;51.840;12.184;2022-11-03T16:48:34;11.00;99.90
2893;DHT22;1456;51.840;12.184;2022-11-03T16:51:00;11.00;99.90
2893;DHT22;1456;51.840;12.184;2022-11-03T16:53:25;11.00;99.90
2893;DHT22;1456;51.840;12.184;2022-11-03T16:55:51;11.00;99.90
2893;DHT22;1456;51.840;12.184;2022-11-03T16:58:17;10.90;99.90
2893;DHT22;1456;51.840;12.184;2022-11-03T17:00:42;10.80;99.90
2893;DHT22;1456;51.840;12.184;2022-11-03T17:03:08;10.80;99.90
2893;DHT22;1456;51.840;12.184;2022-11-03T17:05:34;10.70;99.90
2893;DHT22;1456;51.840;12.184;2022-11-03T17:07:59;10.70;99.90
2893;DHT22;1456;51.840;12.184;2022-11-03T17:10:28;10.60;99.90
2893;DHT22;1456;51.840;12.184;2022-11-03T17:12:56;10.60;99.90
2893;DHT22;1456;51.840;12.184;2022-11-03T17:15:22;10.50;99.90
2893;DHT22;1456;51.840;12.184;2022-11-03T17:17:47;10.50;99.90
2893;DHT22;1456;51.840;12.184;2022-11-03T17:20:13;10.40;99.90
2893;DHT22;1456;51.840;12.184;2022-11-03T17:22:39;10.30;99.90
2893;DHT22;1456;51.840;12.184;2022-11-03T17:25:06;10.30;99.90